Terminal Aerodrome Forecast
Issued by NWS

Home | Current Version | Previous Version | Text Only | Print | Product List | Glossary On
Versions: 1 2 3 4 5 6 7 8 9 10 11 12 13 14 15 16 17 18 19 20 21
697
FTUS44 KLZK 230540
TAFLLQ
TAF
KLLQ 230540Z 2306/2406 VRB03KT P6SM SCT025 BKN060
      TEMPO 2306/2310 BKN025
     FM231500 30004KT P6SM SCT030 OVC050
     FM231900 28004KT P6SM BKN050 BKN080
     FM240200 29003KT P6SM SCT050 BKN080=

USA.gov is the U.S. government's official web portal to all federal, state and local government web resources and services.